Time;durP1;ratioP1;P1;durP2;ratioP2;P2;SDS_P1;SDS_P2;PMS_P1;PMS_P2;Temp;Humidity;BMP_temperature;BMP_pressure;BME280_temperature;BME280_humidity;BME280_pressure;Samples;Min_cycle;Max_cycle;Signal;HPM_P1;HPM_P2
2021/07/08 00:00:21;;;;;;;12.27;7.07;;;16.10;99.90;;;;;;5046739;28;25081;-66
2021/07/08 00:02:50;;;;;;;12.43;7.47;;;16.00;99.90;;;;;;5048726;28;25085;-67
2021/07/08 00:05:17;;;;;;;18.10;8.32;;;16.20;99.90;;;;;;5046848;28;25075;-67
2021/07/08 00:07:43;;;;;;;15.48;8.02;;;16.30;99.90;;;;;;5045214;28;25130;-67
2021/07/08 00:10:15;;;;;;;15.95;8.60;;;16.30;99.90;;;;;;5029639;28;25044;-67
2021/07/08 00:12:40;;;;;;;13.70;7.60;;;16.10;99.90;;;;;;5037269;28;25075;-67
2021/07/08 00:15:17;;;;;;;9.70;6.80;;;16.20;99.90;;;;;;5047572;28;25122;-66
2021/07/08 00:17:43;;;;;;;10.38;7.25;;;16.20;99.90;;;;;;5046662;28;25056;-67
2021/07/08 00:20:12;;;;;;;8.82;7.45;;;16.20;99.90;;;;;;5048084;28;25136;-66
2021/07/08 00:22:38;;;;;;;13.13;7.07;;;16.20;99.90;;;;;;5028634;28;25158;-67
2021/07/08 00:25:11;;;;;;;13.27;7.32;;;16.20;99.90;;;;;;5041170;28;25081;-66
2021/07/08 00:27:37;;;;;;;13.07;7.97;;;16.20;99.90;;;;;;5047344;28;25071;-66
2021/07/08 00:30:07;;;;;;;14.88;8.32;;;16.10;99.90;;;;;;5045891;28;25062;-66
2021/07/08 00:32:33;;;;;;;12.25;8.40;;;16.20;99.90;;;;;;5050200;28;25072;-67
2021/07/08 00:34:59;;;;;;;15.52;8.23;;;16.10;99.90;;;;;;5055041;28;25070;-66
2021/07/08 00:37:25;;;;;;;11.63;8.13;;;15.90;99.90;;;;;;5038865;28;25064;-66
2021/07/08 00:39:51;;;;;;;15.57;9.60;;;15.90;99.90;;;;;;5048812;28;25122;-67
2021/07/08 00:42:17;;;;;;;12.45;7.65;;;16.00;99.90;;;;;;5047813;28;25064;-67
2021/07/08 00:44:43;;;;;;;11.98;8.23;;;16.00;99.90;;;;;;5045146;28;25055;-67
2021/07/08 00:47:09;;;;;;;10.68;7.10;;;16.00;99.90;;;;;;5055408;28;25073;-67
2021/07/08 00:49:35;;;;;;;9.32;7.68;;;16.20;99.90;;;;;;5048731;28;25086;-66
2021/07/08 00:52:00;;;;;;;13.77;8.20;;;16.20;99.90;;;;;;5028688;28;25068;-66
2021/07/08 00:54:26;;;;;;;13.52;8.77;;;16.10;99.90;;;;;;5051570;28;25056;-66
2021/07/08 00:56:51;;;;;;;12.38;8.82;;;16.10;99.90;;;;;;5050309;28;25070;-67
2021/07/08 00:59:18;;;;;;;13.52;8.10;;;16.10;99.90;;;;;;5050404;28;25047;-66
2021/07/08 01:01:44;;;;;;;13.85;8.55;;;16.20;99.90;;;;;;5048876;28;25068;-66
2021/07/08 01:04:11;;;;;;;13.77;8.48;;;16.10;99.90;;;;;;5057942;28;25055;-66
2021/07/08 01:06:43;;;;;;;15.25;7.57;;;16.00;99.90;;;;;;5046276;28;25105;-66
2021/07/08 01:09:09;;;;;;;12.88;8.38;;;15.90;99.90;;;;;;5036681;28;25116;-66
2021/07/08 01:11:35;;;;;;;17.20;8.13;;;16.00;99.90;;;;;;5048838;28;25097;-66
2021/07/08 01:14:01;;;;;;;15.60;8.32;;;16.00;99.90;;;;;;5031905;28;25053;-67
2021/07/08 01:16:28;;;;;;;13.35;8.35;;;16.20;99.90;;;;;;5054031;28;25061;-66
2021/07/08 01:18:53;;;;;;;14.00;8.13;;;16.30;99.90;;;;;;5047872;28;25118;-66
2021/07/08 01:21:34;;;;;;;12.93;8.15;;;16.30;99.90;;;;;;5060087;28;25079;-67
2021/07/08 01:24:02;;;;;;;13.85;8.30;;;16.50;99.90;;;;;;5033604;28;25073;-66
2021/07/08 01:26:28;;;;;;;12.15;8.18;;;16.40;99.90;;;;;;5028837;28;25096;-66
2021/07/08 01:28:54;;;;;;;11.93;8.20;;;16.20;99.90;;;;;;5041678;28;25167;-66
2021/07/08 01:31:21;;;;;;;13.30;7.70;;;16.20;99.90;;;;;;5041055;28;25070;-68
2021/07/08 01:33:48;;;;;;;9.25;7.57;;;16.20;99.90;;;;;;5038554;28;25077;-67
2021/07/08 01:36:14;;;;;;;13.43;7.88;;;16.30;99.90;;;;;;5044965;28;25101;-66
2021/07/08 01:38:40;;;;;;;15.95;7.68;;;16.40;99.90;;;;;;5046969;28;25085;-67
2021/07/08 01:41:06;;;;;;;15.50;7.97;;;16.60;99.90;;;;;;5048926;28;25072;-68
2021/07/08 01:43:39;;;;;;;15.02;7.47;;;16.50;99.90;;;;;;5051788;28;25094;-67
2021/07/08 01:46:06;;;;;;;12.98;9.23;;;16.40;99.90;;;;;;5033814;28;25111;-66
2021/07/08 01:48:32;;;;;;;11.73;7.38;;;16.30;99.90;;;;;;5050440;28;25056;-67
2021/07/08 01:51:02;;;;;;;9.93;7.60;;;16.30;99.90;;;;;;5050855;28;25052;-66
2021/07/08 01:53:27;;;;;;;11.00;7.65;;;16.50;99.90;;;;;;5029168;28;25098;-67
2021/07/08 01:55:53;;;;;;;15.32;8.07;;;16.50;99.90;;;;;;5053287;28;25103;-67
2021/07/08 01:58:18;;;;;;;8.63;7.55;;;16.50;99.90;;;;;;5049920;28;25107;-67
2021/07/08 02:00:46;;;;;;;10.23;7.47;;;16.40;99.90;;;;;;5043876;28;25129;-66
2021/07/08 02:03:12;;;;;;;12.85;8.20;;;16.40;99.90;;;;;;5049702;28;25058;-67
2021/07/08 02:05:37;;;;;;;11.70;7.78;;;16.40;99.90;;;;;;5048839;28;25058;-66
2021/07/08 02:08:03;;;;;;;12.70;8.70;;;16.40;99.90;;;;;;5050396;28;25062;-67
2021/07/08 02:10:29;;;;;;;14.35;8.43;;;16.40;99.90;;;;;;5050060;28;25074;-66
2021/07/08 02:12:54;;;;;;;11.30;7.93;;;16.40;99.90;;;;;;5043090;28;25061;-66
2021/07/08 02:15:20;;;;;;;13.57;7.85;;;16.40;99.90;;;;;;5015627;28;25104;-67
2021/07/08 02:17:46;;;;;;;9.82;7.93;;;16.50;99.90;;;;;;5049872;28;25073;-66
2021/07/08 02:20:13;;;;;;;16.25;8.45;;;16.60;99.90;;;;;;5051181;28;25125;-67
2021/07/08 02:22:39;;;;;;;10.77;8.30;;;16.70;99.90;;;;;;5043752;28;25071;-67
2021/07/08 02:25:06;;;;;;;10.07;8.15;;;16.60;99.90;;;;;;5040099;28;25134;-66
2021/07/08 02:27:32;;;;;;;13.68;8.95;;;16.60;99.90;;;;;;5035957;28;25152;-67
2021/07/08 02:29:58;;;;;;;11.27;9.02;;;16.50;99.90;;;;;;5038787;28;25109;-65
2021/07/08 02:32:24;;;;;;;9.95;7.88;;;16.40;99.90;;;;;;5041855;28;25068;-67
2021/07/08 02:34:49;;;;;;;13.25;8.32;;;16.40;99.90;;;;;;5051579;28;25109;-66
2021/07/08 02:37:15;;;;;;;13.73;8.82;;;16.40;99.90;;;;;;5029175;28;25096;-67
2021/07/08 02:39:41;;;;;;;14.00;8.30;;;16.40;99.90;;;;;;5059961;28;25147;-67
2021/07/08 02:42:07;;;;;;;14.57;9.13;;;16.40;99.90;;;;;;5050544;28;25050;-67
2021/07/08 02:44:33;;;;;;;12.85;9.15;;;16.30;99.90;;;;;;5043183;28;25071;-66
2021/07/08 02:47:00;;;;;;;11.50;9.15;;;16.30;99.90;;;;;;5042385;28;25067;-67
2021/07/08 02:49:26;;;;;;;12.98;9.20;;;16.30;99.90;;;;;;5032721;28;25114;-67
2021/07/08 02:51:53;;;;;;;13.02;8.95;;;16.30;99.90;;;;;;5048769;28;25141;-67
2021/07/08 02:54:19;;;;;;;16.15;10.63;;;16.30;99.90;;;;;;5059526;28;25078;-66
2021/07/08 02:56:44;;;;;;;14.38;9.57;;;16.30;99.90;;;;;;5032518;28;25122;-67
2021/07/08 02:59:10;;;;;;;17.23;9.57;;;16.20;99.90;;;;;;5048949;28;25133;-67
2021/07/08 03:01:35;;;;;;;11.68;9.13;;;16.10;99.90;;;;;;5049462;28;25070;-67
2021/07/08 03:04:01;;;;;;;12.45;8.98;;;16.20;99.90;;;;;;5032222;28;25161;-67
2021/07/08 03:06:27;;;;;;;15.45;9.07;;;16.20;99.90;;;;;;5047121;28;25067;-67
2021/07/08 03:08:52;;;;;;;13.20;9.68;;;16.30;99.90;;;;;;5044161;28;25159;-67
2021/07/08 03:11:18;;;;;;;16.65;8.57;;;16.20;99.90;;;;;;5050008;28;24851;-67
2021/07/08 03:13:43;;;;;;;10.25;8.32;;;16.10;99.90;;;;;;5044635;28;25054;-67
2021/07/08 03:16:09;;;;;;;11.38;9.05;;;16.10;99.90;;;;;;5051241;28;25096;-67
2021/07/08 03:18:35;;;;;;;14.18;8.68;;;16.20;99.90;;;;;;5020541;28;25077;-67
2021/07/08 03:21:01;;;;;;;12.55;8.48;;;16.20;99.90;;;;;;5031977;28;25073;-66
2021/07/08 03:23:27;;;;;;;11.27;8.90;;;16.20;99.90;;;;;;5032162;28;25084;-66
2021/07/08 03:25:52;;;;;;;12.15;9.35;;;16.20;99.90;;;;;;5029497;28;25067;-67
2021/07/08 03:28:19;;;;;;;12.52;9.32;;;16.20;99.90;;;;;;5046181;28;25089;-66
2021/07/08 03:30:44;;;;;;;13.43;8.52;;;16.20;99.90;;;;;;5048312;28;25062;-66
2021/07/08 03:33:10;;;;;;;15.40;10.02;;;16.30;99.90;;;;;;5028298;28;25089;-67
2021/07/08 03:35:36;;;;;;;13.93;8.70;;;16.30;99.90;;;;;;5049915;28;25146;-66
2021/07/08 03:38:03;;;;;;;16.25;9.80;;;16.30;99.90;;;;;;5034862;28;25078;-67
2021/07/08 03:40:29;;;;;;;13.80;10.45;;;16.20;99.90;;;;;;5025342;28;25144;-67
2021/07/08 03:42:55;;;;;;;15.93;9.98;;;16.10;99.90;;;;;;5034351;28;25128;-66
2021/07/08 03:45:23;;;;;;;15.52;10.88;;;16.10;99.90;;;;;;5030013;28;25068;-67
2021/07/08 03:47:49;;;;;;;15.73;9.70;;;16.10;99.90;;;;;;5045235;28;25075;-67
2021/07/08 03:50:15;;;;;;;18.50;10.38;;;16.10;99.90;;;;;;5018212;28;25060;-66
2021/07/08 03:52:42;;;;;;;16.05;10.70;;;16.10;99.90;;;;;;5043846;28;25071;-67
2021/07/08 03:55:15;;;;;;;12.75;9.95;;;16.10;99.90;;;;;;5041785;28;25080;-66
2021/07/08 03:57:52;;;;;;;19.73;11.07;;;16.20;99.90;;;;;;5037293;28;25081;-66
2021/07/08 04:00:25;;;;;;;16.92;11.82;;;16.20;99.90;;;;;;5047557;28;25075;-66
2021/07/08 04:02:50;;;;;;;19.52;10.15;;;16.20;99.90;;;;;;5046114;28;25092;-67
2021/07/08 04:05:16;;;;;;;14.68;11.65;;;16.40;99.90;;;;;;5046292;28;25144;-66
2021/07/08 04:07:42;;;;;;;22.40;11.65;;;16.50;99.90;;;;;;5050558;28;25094;-67
2021/07/08 04:10:08;;;;;;;20.23;11.02;;;16.50;99.90;;;;;;5056229;28;25091;-67
2021/07/08 04:12:33;;;;;;;18.38;11.80;;;16.50;99.90;;;;;;5048612;28;25056;-66
2021/07/08 04:14:59;;;;;;;19.42;12.48;;;16.50;99.90;;;;;;5049521;28;25138;-66
2021/07/08 04:17:24;;;;;;;15.55;10.93;;;16.40;99.90;;;;;;5048300;28;25084;-67
2021/07/08 04:19:50;;;;;;;20.73;10.95;;;16.50;99.90;;;;;;5043354;28;25073;-66
2021/07/08 04:22:15;;;;;;;14.18;10.30;;;16.60;99.90;;;;;;5046629;28;25147;-68
2021/07/08 04:24:41;;;;;;;19.45;11.27;;;16.80;99.90;;;;;;5046008;28;25098;-66
2021/07/08 04:27:06;;;;;;;15.77;11.10;;;16.80;99.90;;;;;;5041870;28;25070;-66
2021/07/08 04:29:32;;;;;;;17.60;11.07;;;16.70;99.90;;;;;;5043008;28;25139;-66
2021/07/08 04:31:57;;;;;;;16.10;11.70;;;16.80;99.90;;;;;;5038045;28;25152;-67
2021/07/08 04:34:23;;;;;;;17.92;11.00;;;16.80;99.90;;;;;;5046960;28;25006;-67
2021/07/08 04:36:49;;;;;;;15.95;11.10;;;16.80;99.90;;;;;;5042154;28;25062;-67
2021/07/08 04:39:14;;;;;;;17.42;11.13;;;16.90;99.90;;;;;;5038063;28;25070;-67
2021/07/08 04:41:40;;;;;;;17.52;11.25;;;16.90;99.90;;;;;;5036842;28;25142;-66
2021/07/08 04:44:06;;;;;;;14.65;10.48;;;16.80;99.90;;;;;;5037146;28;25126;-67
2021/07/08 04:46:32;;;;;;;16.73;9.98;;;16.90;99.90;;;;;;5034361;28;25100;-67
2021/07/08 04:48:58;;;;;;;17.65;10.60;;;17.00;99.90;;;;;;5035849;28;25078;-67
2021/07/08 04:51:24;;;;;;;21.23;12.05;;;17.10;99.90;;;;;;5042273;28;25166;-67
2021/07/08 04:53:51;;;;;;;15.18;11.27;;;17.10;99.90;;;;;;5043388;28;25068;-67
2021/07/08 04:56:16;;;;;;;16.10;9.95;;;17.10;99.90;;;;;;5048313;28;25060;-67
2021/07/08 04:58:42;;;;;;;16.50;10.93;;;17.20;99.90;;;;;;5038935;28;25156;-65
2021/07/08 05:01:08;;;;;;;15.40;10.93;;;17.20;99.90;;;;;;5038483;28;25118;-67
2021/07/08 05:03:33;;;;;;;15.55;10.63;;;17.10;99.90;;;;;;5040876;28;25062;-66
2021/07/08 05:05:59;;;;;;;14.90;11.15;;;17.10;99.90;;;;;;5044662;28;25068;-68
2021/07/08 05:08:24;;;;;;;16.90;11.02;;;17.30;99.90;;;;;;5038606;28;25076;-67
2021/07/08 05:10:50;;;;;;;22.33;10.75;;;17.20;99.90;;;;;;5038378;28;25062;-65
2021/07/08 05:13:16;;;;;;;20.83;10.43;;;17.20;99.90;;;;;;5040938;28;25091;-66
2021/07/08 05:15:41;;;;;;;16.98;10.10;;;17.20;99.90;;;;;;5040995;28;25073;-65
2021/07/08 05:18:07;;;;;;;12.30;10.32;;;17.40;99.90;;;;;;5034321;28;25076;-66
2021/07/08 05:20:33;;;;;;;14.73;9.98;;;17.50;99.90;;;;;;5030773;28;25150;-66
2021/07/08 05:23:01;;;;;;;15.05;8.75;;;17.50;99.90;;;;;;5032405;28;25087;-66
2021/07/08 05:25:29;;;;;;;14.75;9.85;;;17.60;99.90;;;;;;5038797;28;25091;-66
2021/07/08 05:27:55;;;;;;;15.48;9.32;;;17.80;99.90;;;;;;5042803;28;25099;-66
2021/07/08 05:30:21;;;;;;;15.23;9.45;;;18.00;99.90;;;;;;5026475;28;25106;-67
2021/07/08 05:32:46;;;;;;;19.50;9.35;;;18.00;99.90;;;;;;5038839;28;25131;-66
2021/07/08 05:35:12;;;;;;;13.50;8.43;;;18.00;99.90;;;;;;5034518;28;25053;-67
2021/07/08 05:37:38;;;;;;;12.02;8.70;;;18.10;99.90;;;;;;5035347;28;25061;-65
2021/07/08 05:40:05;;;;;;;10.52;8.85;;;18.00;99.90;;;;;;5031053;28;25051;-65
2021/07/08 05:42:31;;;;;;;12.95;8.18;;;18.10;99.90;;;;;;5032693;28;25339;-67
2021/07/08 05:44:57;;;;;;;13.85;8.52;;;18.20;99.90;;;;;;5042462;28;25056;-66
2021/07/08 05:47:23;;;;;;;15.10;8.43;;;18.10;99.90;;;;;;5029584;28;25072;-66
2021/07/08 05:49:49;;;;;;;22.80;8.23;;;18.20;99.90;;;;;;5045947;28;25082;-66
2021/07/08 05:52:14;;;;;;;16.35;7.43;;;18.30;99.90;;;;;;5038606;28;25090;-66
2021/07/08 05:54:40;;;;;;;16.65;8.05;;;18.40;99.90;;;;;;5037698;28;25064;-64
2021/07/08 05:57:06;;;;;;;11.82;8.48;;;18.50;99.90;;;;;;5032028;28;25154;-66
2021/07/08 05:59:31;;;;;;;11.65;8.10;;;18.50;99.90;;;;;;5046804;28;25103;-65
2021/07/08 06:01:57;;;;;;;15.52;8.57;;;18.60;99.90;;;;;;5043795;28;25126;-67
2021/07/08 06:04:22;;;;;;;19.23;8.75;;;18.60;99.90;;;;;;5046816;28;25058;-69
2021/07/08 06:06:48;;;;;;;16.65;8.48;;;18.60;99.90;;;;;;5046262;28;25083;-66
2021/07/08 06:09:13;;;;;;;9.40;7.55;;;18.60;99.90;;;;;;5045745;28;25086;-66
2021/07/08 06:11:39;;;;;;;16.55;6.90;;;18.70;99.90;;;;;;5044034;28;25078;-66
2021/07/08 06:14:05;;;;;;;17.85;8.27;;;18.70;99.90;;;;;;5046563;28;25144;-66
2021/07/08 06:16:30;;;;;;;14.13;7.40;;;18.70;99.90;;;;;;5047595;28;25149;-67
2021/07/08 06:18:56;;;;;;;12.73;7.90;;;18.80;99.90;;;;;;5044897;28;25129;-67
2021/07/08 06:21:21;;;;;;;14.15;8.55;;;18.90;99.90;;;;;;5047540;28;25086;-65
2021/07/08 06:23:47;;;;;;;13.65;8.05;;;18.90;99.90;;;;;;5025644;28;25075;-67
2021/07/08 06:26:13;;;;;;;11.23;8.27;;;18.90;99.90;;;;;;5036397;28;25059;-69
2021/07/08 06:28:41;;;;;;;15.52;7.28;;;18.90;99.90;;;;;;5048910;28;25075;-67
2021/07/08 06:31:07;;;;;;;13.93;8.20;;;18.80;99.90;;;;;;5051125;28;25164;-68
2021/07/08 06:33:32;;;;;;;14.85;8.23;;;18.70;99.90;;;;;;5051355;28;25053;-66
2021/07/08 06:35:58;;;;;;;13.90;8.38;;;18.70;99.90;;;;;;5051755;28;25115;-68
2021/07/08 06:38:23;;;;;;;11.13;7.57;;;18.90;99.90;;;;;;5038662;28;25096;-67
2021/07/08 06:40:50;;;;;;;17.55;8.18;;;19.10;99.90;;;;;;5040879;28;25097;-67
2021/07/08 06:43:15;;;;;;;12.35;7.38;;;19.20;99.90;;;;;;5045177;28;25150;-67
2021/07/08 06:45:41;;;;;;;15.55;7.90;;;19.40;99.90;;;;;;5044873;28;25123;-66
2021/07/08 06:48:08;;;;;;;17.95;7.88;;;19.60;99.90;;;;;;5040446;28;25057;-67
2021/07/08 06:50:35;;;;;;;10.70;7.05;;;19.60;99.90;;;;;;5040977;28;25077;-68
2021/07/08 06:53:03;;;;;;;16.58;7.38;;;19.30;99.90;;;;;;5050182;28;25123;-68
2021/07/08 06:55:29;;;;;;;20.60;7.28;;;19.30;99.90;;;;;;5063656;28;25101;-68
2021/07/08 06:57:54;;;;;;;21.50;7.22;;;19.60;99.90;;;;;;5052186;28;25089;-66
2021/07/08 07:00:25;;;;;;;8.52;4.60;;;19.70;99.90;;;;;;5051302;28;25077;-70
2021/07/08 07:02:55;;;;;;;6.97;3.38;;;19.60;99.90;;;;;;5038524;28;25083;-68
2021/07/08 07:05:21;;;;;;;15.95;3.78;;;19.70;99.90;;;;;;5049267;28;25098;-67
2021/07/08 07:07:47;;;;;;;8.27;3.35;;;19.70;99.90;;;;;;5050738;28;25098;-68
2021/07/08 07:10:13;;;;;;;5.18;2.92;;;19.40;99.90;;;;;;5050338;28;25101;-67
2021/07/08 07:12:43;;;;;;;5.40;3.15;;;19.70;99.90;;;;;;5051412;28;25063;-67
2021/07/08 07:15:10;;;;;;;8.57;3.80;;;19.80;99.90;;;;;;5051218;28;25136;-68
2021/07/08 07:17:36;;;;;;;6.82;4.43;;;19.60;99.90;;;;;;5034272;28;25060;-66
2021/07/08 07:20:04;;;;;;;8.70;4.30;;;19.20;99.90;;;;;;5050938;28;25161;-67
2021/07/08 07:22:29;;;;;;;7.05;3.83;;;19.50;99.90;;;;;;5036108;28;25072;-68
2021/07/08 07:24:55;;;;;;;5.35;3.38;;;19.40;99.90;;;;;;5055746;28;25097;-68
2021/07/08 07:27:20;;;;;;;4.80;2.95;;;19.20;99.90;;;;;;5055647;28;25071;-67
2021/07/08 07:29:46;;;;;;;4.10;2.67;;;19.20;99.90;;;;;;5053163;28;25095;-68
2021/07/08 07:32:12;;;;;;;4.50;2.72;;;19.30;99.90;;;;;;5052681;28;25074;-67
2021/07/08 07:34:37;;;;;;;4.35;2.47;;;19.50;99.90;;;;;;5052543;28;25095;-67
2021/07/08 07:37:03;;;;;;;4.80;2.72;;;19.70;99.90;;;;;;5038592;28;25142;-67
2021/07/08 07:39:28;;;;;;;10.95;3.20;;;19.90;99.90;;;;;;5048723;28;25051;-67
2021/07/08 07:41:54;;;;;;;6.38;2.63;;;19.80;99.90;;;;;;5049753;28;25092;-68
2021/07/08 07:44:19;;;;;;;5.88;3.38;;;20.00;99.90;;;;;;5053539;28;25057;-68
2021/07/08 07:46:45;;;;;;;3.40;2.50;;;19.80;99.90;;;;;;5042004;28;25070;-67
2021/07/08 07:49:11;;;;;;;4.18;2.30;;;19.70;99.90;;;;;;5036454;28;25110;-68
2021/07/08 07:51:37;;;;;;;5.50;2.72;;;19.70;99.90;;;;;;5049739;28;25150;-68
2021/07/08 07:54:02;;;;;;;5.72;2.17;;;20.10;99.90;;;;;;5056072;28;25114;-68
2021/07/08 07:56:28;;;;;;;6.28;2.53;;;20.40;99.90;;;;;;5048385;28;25130;-67
2021/07/08 07:58:54;;;;;;;6.10;2.10;;;20.50;99.90;;;;;;5030614;28;25065;-68
2021/07/08 08:01:20;;;;;;;4.00;2.10;;;20.60;99.90;;;;;;5049453;28;25111;-67
2021/07/08 08:03:46;;;;;;;3.33;2.05;;;20.10;99.90;;;;;;5043405;28;25083;-67
2021/07/08 08:08:55;;;;;;;4.03;1.95;;;19.70;99.90;;;;;;5042538;28;25062;-67
2021/07/08 08:11:21;;;;;;;3.47;2.13;;;19.80;99.90;;;;;;5049035;28;25064;-66
2021/07/08 08:13:47;;;;;;;6.60;2.03;;;20.00;99.90;;;;;;5040602;28;25057;-67
2021/07/08 08:16:13;;;;;;;2.05;1.80;;;20.00;99.90;;;;;;5041133;28;25063;-67
2021/07/08 08:18:38;;;;;;;2.58;1.88;;;20.00;99.90;;;;;;5039798;28;25100;-67
2021/07/08 08:21:04;;;;;;;2.13;1.90;;;20.10;99.90;;;;;;5036543;28;25077;-68
2021/07/08 08:23:30;;;;;;;3.08;2.20;;;20.20;99.90;;;;;;5048437;28;25112;-67
2021/07/08 08:25:56;;;;;;;4.20;1.88;;;20.20;99.90;;;;;;5043124;28;25076;-67
2021/07/08 08:28:22;;;;;;;6.28;2.40;;;20.50;99.90;;;;;;5037106;28;25064;-67
2021/07/08 08:30:48;;;;;;;1.92;1.80;;;20.30;99.90;;;;;;5039699;28;25069;-66
2021/07/08 08:33:14;;;;;;;3.70;2.17;;;20.20;99.90;;;;;;5048088;28;25068;-67
2021/07/08 08:35:40;;;;;;;2.13;1.88;;;20.30;99.90;;;;;;5051618;28;25073;-66
2021/07/08 08:38:06;;;;;;;6.95;2.90;;;20.10;99.90;;;;;;5033111;28;25123;-67
2021/07/08 08:40:32;;;;;;;2.13;1.80;;;20.10;99.90;;;;;;5044059;28;25090;-68
2021/07/08 08:42:58;;;;;;;2.85;1.95;;;20.10;99.90;;;;;;5045008;28;25245;-66
2021/07/08 08:45:23;;;;;;;3.25;2.08;;;20.00;99.90;;;;;;5031738;28;25105;-67
2021/07/08 08:48:07;;;;;;;3.80;1.98;;;20.20;99.90;;;;;;5036077;28;25126;-67
2021/07/08 08:50:35;;;;;;;6.07;2.38;;;20.30;99.90;;;;;;5038390;28;25161;-67
2021/07/08 08:53:03;;;;;;;2.92;2.10;;;20.40;99.90;;;;;;5022062;28;25257;-67
2021/07/08 08:55:28;;;;;;;9.93;2.30;;;20.30;99.90;;;;;;5054417;28;25070;-67
2021/07/08 08:57:54;;;;;;;3.88;2.17;;;20.30;99.90;;;;;;5048487;28;25053;-67
2021/07/08 09:00:25;;;;;;;14.88;2.05;;;20.50;99.90;;;;;;5044276;28;25086;-67
2021/07/08 09:03:11;;;;;;;2.33;1.88;;;20.50;99.90;;;;;;5046733;28;25079;-67
2021/07/08 09:05:37;;;;;;;2.60;1.65;;;20.80;99.90;;;;;;5035990;28;25108;-67
2021/07/08 09:08:21;;;;;;;2.08;1.90;;;20.80;99.90;;;;;;5041358;28;25076;-67
2021/07/08 09:10:50;;;;;;;3.88;2.08;;;20.90;99.90;;;;;;5045009;28;25137;-67
2021/07/08 09:13:16;;;;;;;7.93;2.30;;;20.80;99.90;;;;;;5062873;28;25074;-67
2021/07/08 09:15:42;;;;;;;5.70;2.22;;;20.80;99.90;;;;;;5058221;28;25077;-66
2021/07/08 09:18:10;;;;;;;3.72;2.22;;;20.40;99.90;;;;;;5064600;28;25102;-67
2021/07/08 09:20:36;;;;;;;3.72;2.20;;;20.30;99.90;;;;;;5056771;28;25088;-67
2021/07/08 09:23:11;;;;;;;3.22;1.95;;;20.20;99.90;;;;;;5047047;28;25046;-67
2021/07/08 09:25:37;;;;;;;4.25;2.38;;;20.10;99.90;;;;;;5050065;28;25048;-66
2021/07/08 09:28:16;;;;;;;2.90;2.08;;;20.30;99.90;;;;;;5055720;28;25116;-66
2021/07/08 09:30:44;;;;;;;3.10;2.65;;;20.30;99.90;;;;;;5057168;28;25069;-66
2021/07/08 09:33:39;;;;;;;5.38;2.08;;;20.30;99.90;;;;;;5051705;28;25067;-66
2021/07/08 09:36:09;;;;;;;2.65;2.13;;;20.50;99.90;;;;;;5054300;28;25103;-67
2021/07/08 09:38:35;;;;;;;3.78;2.45;;;20.60;99.90;;;;;;5043698;28;25091;-67
2021/07/08 09:41:22;;;;;;;3.08;2.08;;;20.50;99.90;;;;;;5052297;28;25061;-67
2021/07/08 09:43:48;;;;;;;3.65;2.00;;;20.80;99.90;;;;;;5042927;28;25091;-67
2021/07/08 09:46:15;;;;;;;2.50;1.98;;;21.30;99.90;;;;;;5043844;28;25102;-68
2021/07/08 09:49:05;;;;;;;3.13;2.30;;;21.60;99.90;;;;;;5053238;28;25058;-66
2021/07/08 09:51:32;;;;;;;4.95;1.90;;;21.70;99.90;;;;;;5037526;28;25068;-68
2021/07/08 09:54:11;;;;;;;3.63;2.40;;;21.80;99.90;;;;;;5058309;28;25069;-67
2021/07/08 09:56:43;;;;;;;4.50;2.25;;;22.00;99.90;;;;;;5052035;28;25076;-67
2021/07/08 09:59:09;;;;;;;2.85;1.70;;;22.00;99.90;;;;;;5046460;28;25457;-68
2021/07/08 10:01:34;;;;;;;3.67;2.00;;;22.00;99.90;;;;;;5058843;28;25064;-68
2021/07/08 10:04:00;;;;;;;4.28;1.55;;;22.30;99.90;;;;;;5060402;28;25066;-67
2021/07/08 10:06:27;;;;;;;2.08;1.88;;;22.30;99.90;;;;;;5045551;28;25101;-68
2021/07/08 10:08:54;;;;;;;6.40;2.17;;;22.40;99.90;;;;;;5063133;28;25111;-69
2021/07/08 10:11:20;;;;;;;4.45;2.10;;;22.20;99.90;;;;;;5047980;28;25076;-67
2021/07/08 10:13:46;;;;;;;3.17;2.10;;;21.90;99.90;;;;;;5054819;28;25093;-67
2021/07/08 10:16:14;;;;;;;4.90;2.58;;;21.60;99.90;;;;;;5060511;28;25079;-68
2021/07/08 10:18:42;;;;;;;4.63;2.47;;;21.60;99.90;;;;;;5060578;28;25073;-68
2021/07/08 10:21:09;;;;;;;4.15;2.47;;;21.80;99.90;;;;;;5061586;28;25124;-68
2021/07/08 10:23:37;;;;;;;2.80;2.42;;;21.80;99.90;;;;;;5061278;28;25050;-69
2021/07/08 10:26:05;;;;;;;3.78;2.35;;;22.10;99.90;;;;;;5062333;28;25082;-68
2021/07/08 10:28:34;;;;;;;2.78;2.33;;;22.10;99.90;;;;;;5061349;28;25096;-68
2021/07/08 10:31:00;;;;;;;7.15;2.40;;;22.10;99.90;;;;;;5053807;28;25099;-67
2021/07/08 10:33:26;;;;;;;2.22;2.03;;;22.10;99.90;;;;;;5057560;28;25081;-67
2021/07/08 10:35:53;;;;;;;4.82;2.67;;;22.00;99.90;;;;;;5056120;28;25071;-67
2021/07/08 10:38:37;;;;;;;4.78;2.35;;;21.70;99.90;;;;;;5054755;28;25058;-68
2021/07/08 10:41:29;;;;;;;4.90;2.10;;;21.70;99.90;;;;;;5053699;28;25088;-68
2021/07/08 10:43:54;;;;;;;5.80;2.20;;;21.80;99.90;;;;;;5015692;28;25148;-67
2021/07/08 10:46:37;;;;;;;2.28;2.05;;;21.80;99.90;;;;;;5040996;28;25070;-67
2021/07/08 10:49:11;;;;;;;8.38;3.13;;;21.60;99.90;;;;;;5054703;28;25102;-68
2021/07/08 10:51:38;;;;;;;3.05;2.50;;;21.70;99.90;;;;;;5040007;28;25064;-67
2021/07/08 10:54:24;;;;;;;5.65;2.50;;;21.70;99.90;;;;;;5064650;28;25106;-69
2021/07/08 10:56:50;;;;;;;4.07;2.55;;;21.90;99.90;;;;;;5043394;28;25070;-67
2021/07/08 10:59:15;;;;;;;5.55;3.05;;;22.00;99.90;;;;;;5056239;28;25082;-67
2021/07/08 11:01:46;;;;;;;5.45;2.90;;;22.20;99.90;;;;;;5055562;28;25091;-67
2021/07/08 11:04:12;;;;;;;7.60;3.53;;;21.60;99.90;;;;;;5047538;28;25060;-67
2021/07/08 11:06:44;;;;;;;8.65;3.20;;;21.60;99.90;;;;;;5029609;28;25066;-68
2021/07/08 11:09:13;;;;;;;8.80;4.25;;;21.70;99.90;;;;;;5035278;28;25249;-67
2021/07/08 11:11:45;;;;;;;5.60;2.75;;;21.60;99.90;;;;;;5033650;28;25049;-67
2021/07/08 11:14:19;;;;;;;5.18;3.88;;;22.00;99.90;;;;;;5053807;28;25057;-67
2021/07/08 11:16:59;;;;;;;9.38;3.42;;;22.20;99.90;;;;;;5054673;28;25083;-68
2021/07/08 11:19:27;;;;;;;4.18;3.47;;;22.30;99.90;;;;;;5037115;28;25105;-68
2021/07/08 11:22:13;;;;;;;4.07;3.05;;;22.70;99.90;;;;;;5050241;28;25156;-68
2021/07/08 11:24:48;;;;;;;4.50;2.60;;;22.80;99.90;;;;;;5054227;28;25069;-68
2021/07/08 11:27:17;;;;;;;3.03;2.60;;;22.80;99.90;;;;;;5055112;28;25063;-68
2021/07/08 11:29:48;;;;;;;6.47;2.60;;;22.60;99.90;;;;;;5046150;28;25051;-69
2021/07/08 11:32:26;;;;;;;6.28;2.72;;;22.60;99.90;;;;;;5049987;28;25064;-68
2021/07/08 11:38:07;;;;;;;4.40;2.13;;;22.30;99.90;;;;;;5030101;28;25100;-68
2021/07/08 11:40:38;;;;;;;6.43;2.75;;;22.10;99.90;;;;;;5033859;28;25070;-67
2021/07/08 11:43:19;;;;;;;4.90;1.98;;;22.40;99.90;;;;;;5052111;28;25135;-69
2021/07/08 11:45:46;;;;;;;4.00;2.55;;;22.60;99.90;;;;;;5053207;28;25070;-67
2021/07/08 11:48:11;;;;;;;7.07;3.70;;;22.50;99.90;;;;;;5048720;28;25058;-67
2021/07/08 11:50:39;;;;;;;9.52;3.20;;;22.20;99.90;;;;;;5035302;28;25057;-68
2021/07/08 11:53:17;;;;;;;6.13;3.22;;;22.20;99.90;;;;;;5051098;28;25057;-67
2021/07/08 11:55:48;;;;;;;7.30;3.15;;;22.30;99.90;;;;;;5062830;28;25063;-68
2021/07/08 11:58:21;;;;;;;5.63;2.85;;;22.30;99.90;;;;;;5050334;28;25078;-68
2021/07/08 12:00:48;;;;;;;4.80;2.83;;;22.70;99.90;;;;;;5049146;28;25150;-67
2021/07/08 12:03:32;;;;;;;6.30;3.05;;;22.70;99.90;;;;;;5049605;28;25093;-68
2021/07/08 12:06:06;;;;;;;4.93;2.70;;;22.80;99.90;;;;;;5039374;28;25052;-69
2021/07/08 12:08:42;;;;;;;8.63;3.40;;;22.80;99.90;;;;;;5045738;28;25162;-67
2021/07/08 12:11:17;;;;;;;13.57;3.10;;;22.90;99.90;;;;;;5048545;28;25089;-68
2021/07/08 12:13:52;;;;;;;6.63;3.10;;;23.10;99.90;;;;;;5030537;28;25098;-68
2021/07/08 12:16:20;;;;;;;5.30;3.13;;;22.90;99.90;;;;;;5040052;28;25074;-68
2021/07/08 12:18:50;;;;;;;7.70;4.15;;;22.70;99.90;;;;;;5044891;28;25137;-69
2021/07/08 12:21:20;;;;;;;3.13;2.72;;;22.80;99.90;;;;;;5039232;28;25091;-68
2021/07/08 12:23:46;;;;;;;4.22;2.67;;;23.10;99.90;;;;;;5032996;28;25075;-69
2021/07/08 12:26:30;;;;;;;7.80;2.58;;;23.40;99.90;;;;;;5039247;28;25057;-67
2021/07/08 12:29:16;;;;;;;5.20;2.70;;;23.60;99.90;;;;;;5030450;28;25095;-70
2021/07/08 12:31:42;;;;;;;2.83;2.50;;;23.80;99.90;;;;;;5049193;28;25061;-68
2021/07/08 12:34:08;;;;;;;6.38;3.15;;;24.00;99.90;;;;;;5049270;28;25099;-68
2021/07/08 12:36:33;;;;;;;4.40;2.88;;;23.90;99.90;;;;;;5044028;28;25070;-68
2021/07/08 12:38:59;;;;;;;4.43;2.50;;;23.60;99.90;;;;;;5060797;28;25091;-68
2021/07/08 12:41:24;;;;;;;8.38;2.97;;;23.80;99.90;;;;;;5064286;28;25058;-68
2021/07/08 12:43:50;;;;;;;2.97;2.50;;;23.90;99.90;;;;;;5048118;28;25058;-69
2021/07/08 12:46:16;;;;;;;8.05;2.97;;;23.70;99.90;;;;;;5043505;28;25064;-68
2021/07/08 12:48:41;;;;;;;6.80;3.40;;;23.90;99.90;;;;;;5047924;28;25076;-69